Time;durP1;ratioP1;P1;durP2;ratioP2;P2;SDS_P1;SDS_P2;PMS_P1;PMS_P2;Temp;Humidity;BMP_temperature;BMP_pressure;BME280_temperature;BME280_humidity;BME280_pressure;Samples;Min_cycle;Max_cycle;Signal;HPM_P1;HPM_P2
2023/12/06 00:00:09;;;;;;;17.70;11.13;;;6.10;99.90;;;;;;5071404;28;20175;-73
2023/12/06 00:02:35;;;;;;;15.65;11.30;;;6.10;99.90;;;;;;5086406;28;20267;-73
2023/12/06 00:05:01;;;;;;;15.20;10.57;;;6.00;99.90;;;;;;5073741;28;20271;-73
2023/12/06 00:07:26;;;;;;;14.23;10.80;;;6.00;99.90;;;;;;5082294;28;20190;-73
2023/12/06 00:09:52;;;;;;;15.87;11.80;;;6.00;99.90;;;;;;5086101;28;20797;-73
2023/12/06 00:12:18;;;;;;;16.03;11.27;;;6.00;99.90;;;;;;5088070;28;20176;-73
2023/12/06 00:14:43;;;;;;;14.90;11.67;;;6.00;99.90;;;;;;5083864;28;20207;-73
2023/12/06 00:17:10;;;;;;;13.77;10.20;;;6.00;99.90;;;;;;5089465;28;20503;-73
2023/12/06 00:19:36;;;;;;;14.10;11.60;;;6.00;99.90;;;;;;5109544;28;20218;-74
2023/12/06 00:22:01;;;;;;;15.90;11.67;;;6.00;99.90;;;;;;5104148;28;20214;-73
2023/12/06 00:24:27;;;;;;;16.40;11.60;;;6.00;99.90;;;;;;5085964;28;20554;-73
2023/12/06 00:26:53;;;;;;;13.87;10.30;;;5.90;99.90;;;;;;5094441;28;20186;-73
2023/12/06 00:29:18;;;;;;;13.87;10.70;;;5.90;99.90;;;;;;5112307;28;20286;-73
2023/12/06 00:31:44;;;;;;;13.40;10.20;;;5.90;99.90;;;;;;5105703;28;20179;-73
2023/12/06 00:34:10;;;;;;;11.67;10.10;;;5.80;99.90;;;;;;5073721;28;20175;-73
2023/12/06 00:36:35;;;;;;;16.40;11.67;;;5.80;99.90;;;;;;5073855;28;20232;-73
2023/12/06 00:39:01;;;;;;;15.20;10.70;;;5.80;99.90;;;;;;5093928;28;20578;-73
2023/12/06 00:41:27;;;;;;;15.03;10.87;;;5.70;99.90;;;;;;5078417;28;20280;-73
2023/12/06 00:43:53;;;;;;;11.37;8.50;;;5.70;99.90;;;;;;5090221;28;20581;-72
2023/12/06 00:46:19;;;;;;;16.88;10.82;;;5.70;99.90;;;;;;5106694;28;21134;-72
2023/12/06 00:48:45;;;;;;;14.73;10.13;;;5.70;99.90;;;;;;5073397;28;20214;-73
2023/12/06 00:51:10;;;;;;;15.07;10.43;;;5.70;99.90;;;;;;5060442;28;20646;-73
2023/12/06 00:53:36;;;;;;;17.13;10.43;;;5.60;99.90;;;;;;5078596;28;20515;-74
2023/12/06 00:56:02;;;;;;;14.90;10.00;;;5.60;99.90;;;;;;5073644;28;20252;-74
2023/12/06 00:58:28;;;;;;;14.73;9.83;;;5.60;99.90;;;;;;5063814;28;20190;-73
2023/12/06 01:00:53;;;;;;;11.87;9.20;;;5.50;99.90;;;;;;5092570;28;20569;-72
2023/12/06 01:03:19;;;;;;;11.10;8.70;;;5.50;99.90;;;;;;5064969;28;20171;-72
2023/12/06 01:05:44;;;;;;;13.43;9.90;;;5.50;99.90;;;;;;5040140;28;20495;-72
2023/12/06 01:08:10;;;;;;;13.17;9.20;;;5.50;99.90;;;;;;5048282;28;20258;-73
2023/12/06 01:10:36;;;;;;;13.53;9.30;;;5.50;99.90;;;;;;5087632;28;20554;-73
2023/12/06 01:13:01;;;;;;;15.13;11.97;;;5.50;99.90;;;;;;5065163;28;20581;-73
2023/12/06 01:15:27;;;;;;;14.97;11.17;;;5.50;99.90;;;;;;5064556;28;20238;-72
2023/12/06 01:17:53;;;;;;;19.77;11.93;;;5.50;99.90;;;;;;5091295;28;20187;-72
2023/12/06 01:20:19;;;;;;;19.30;12.60;;;5.50;99.90;;;;;;5073281;28;20191;-72
2023/12/06 01:22:44;;;;;;;16.50;11.57;;;5.50;99.90;;;;;;5090243;28;20171;-72
2023/12/06 01:25:10;;;;;;;17.87;12.40;;;5.50;99.90;;;;;;5056299;28;20656;-73
2023/12/06 01:27:36;;;;;;;20.50;13.83;;;5.50;99.90;;;;;;5065212;28;20176;-72
2023/12/06 01:30:04;;;;;;;19.17;14.63;;;5.50;99.90;;;;;;5072585;28;20183;-72
2023/12/06 01:32:30;;;;;;;24.65;13.88;;;5.50;99.90;;;;;;5084185;28;20181;-73
2023/12/06 01:34:55;;;;;;;22.45;15.70;;;5.50;99.90;;;;;;5071769;28;20211;-73
2023/12/06 01:37:21;;;;;;;21.37;14.53;;;5.50;99.90;;;;;;5072665;28;20168;-72
2023/12/06 01:39:47;;;;;;;18.60;13.70;;;5.50;99.90;;;;;;5089902;28;20308;-73
2023/12/06 01:42:13;;;;;;;26.40;14.57;;;5.50;99.90;;;;;;5069443;28;20184;-73
2023/12/06 01:44:38;;;;;;;19.40;14.33;;;5.50;99.90;;;;;;5087365;28;20199;-74
2023/12/06 01:47:05;;;;;;;21.50;15.33;;;5.50;99.90;;;;;;5081405;28;20582;-73
2023/12/06 01:49:32;;;;;;;21.77;15.27;;;5.40;99.90;;;;;;5090944;28;20221;-73
2023/12/06 01:51:57;;;;;;;22.00;14.93;;;5.50;99.90;;;;;;5091911;28;20183;-73
2023/12/06 01:54:23;;;;;;;24.73;15.63;;;5.50;99.90;;;;;;5089022;28;20288;-73
2023/12/06 01:56:49;;;;;;;23.27;16.90;;;5.40;99.90;;;;;;5092772;28;20174;-73
2023/12/06 01:59:15;;;;;;;24.77;16.90;;;5.40;99.90;;;;;;5106115;28;20668;-73
2023/12/06 02:01:41;;;;;;;23.65;16.73;;;5.40;99.90;;;;;;5089777;28;20566;-73
2023/12/06 02:04:07;;;;;;;25.60;17.07;;;5.40;99.90;;;;;;5092897;28;20194;-73
2023/12/06 02:06:33;;;;;;;27.50;19.47;;;5.30;99.90;;;;;;5092984;28;20175;-74
2023/12/06 02:08:59;;;;;;;28.08;16.80;;;5.30;99.90;;;;;;5100557;28;20206;-73
2023/12/06 02:11:43;;;;;;;26.90;16.50;;;5.30;99.90;;;;;;5109253;28;20541;-73
2023/12/06 02:14:09;;;;;;;32.17;22.70;;;5.30;99.90;;;;;;5092830;28;20171;-73
2023/12/06 02:16:35;;;;;;;28.17;19.87;;;5.20;99.90;;;;;;5084923;28;20620;-73
2023/12/06 02:19:02;;;;;;;33.47;20.10;;;5.20;99.90;;;;;;5098016;28;20676;-73
2023/12/06 02:21:28;;;;;;;32.63;20.90;;;5.20;99.90;;;;;;5087060;28;20615;-73
2023/12/06 02:23:57;;;;;;;26.52;19.88;;;5.20;99.90;;;;;;5085841;28;20185;-73
2023/12/06 02:26:23;;;;;;;35.72;24.98;;;5.20;99.90;;;;;;5085212;28;20256;-73
2023/12/06 02:28:53;;;;;;;37.10;22.97;;;5.20;99.90;;;;;;5084111;28;20718;-73
2023/12/06 02:31:19;;;;;;;36.63;24.15;;;5.10;99.90;;;;;;5070097;28;20581;-73
2023/12/06 02:33:46;;;;;;;36.53;21.90;;;5.10;99.90;;;;;;5092437;28;20624;-73
2023/12/06 02:36:13;;;;;;;33.92;22.50;;;5.10;99.90;;;;;;5072276;28;20191;-73
2023/12/06 02:38:40;;;;;;;36.92;25.25;;;5.10;99.90;;;;;;5072406;28;20564;-73
2023/12/06 02:41:09;;;;;;;39.17;25.58;;;5.10;99.90;;;;;;5080717;28;20275;-73
2023/12/06 02:43:35;;;;;;;40.55;24.70;;;5.10;99.90;;;;;;5092728;28;20178;-72
2023/12/06 02:46:01;;;;;;;40.27;25.00;;;5.10;99.90;;;;;;5074270;28;20275;-72
2023/12/06 02:48:26;;;;;;;38.53;23.60;;;5.00;99.90;;;;;;5077690;28;20219;-72
2023/12/06 02:50:52;;;;;;;36.93;24.13;;;5.00;99.90;;;;;;5063924;28;20285;-72
2023/12/06 02:53:18;;;;;;;31.70;22.90;;;5.00;99.90;;;;;;5103774;28;20175;-72
2023/12/06 02:55:43;;;;;;;34.10;22.37;;;5.00;99.90;;;;;;5055413;28;20218;-73
2023/12/06 02:58:09;;;;;;;33.70;21.90;;;4.90;99.90;;;;;;5075445;28;20624;-72
2023/12/06 03:00:35;;;;;;;40.37;25.43;;;4.90;99.90;;;;;;5088832;28;20164;-73
2023/12/06 03:03:00;;;;;;;35.17;23.27;;;4.90;99.90;;;;;;5066808;28;20178;-73
2023/12/06 03:05:26;;;;;;;40.53;26.00;;;4.90;99.90;;;;;;5089280;28;20542;-73
2023/12/06 03:07:52;;;;;;;27.43;21.10;;;4.90;99.90;;;;;;5111708;28;20205;-73
2023/12/06 03:10:17;;;;;;;35.13;22.97;;;4.90;99.90;;;;;;5101092;28;20171;-73
2023/12/06 03:12:43;;;;;;;33.17;24.50;;;4.90;99.90;;;;;;5084015;28;20540;-73
2023/12/06 03:15:09;;;;;;;36.20;21.70;;;4.90;99.90;;;;;;5087335;28;20659;-73
2023/12/06 03:17:35;;;;;;;31.70;21.70;;;4.90;99.90;;;;;;5080259;28;20228;-73
2023/12/06 03:20:00;;;;;;;34.30;22.57;;;4.90;99.90;;;;;;5090160;28;20587;-73
2023/12/06 03:22:26;;;;;;;36.77;24.50;;;4.90;99.90;;;;;;5107530;27;20214;-71
2023/12/06 03:24:52;;;;;;;32.20;21.90;;;4.90;99.90;;;;;;5089738;28;20718;-71
2023/12/06 03:27:17;;;;;;;31.70;23.37;;;4.90;99.90;;;;;;5079194;28;20265;-72
2023/12/06 03:29:43;;;;;;;36.77;24.63;;;4.90;99.90;;;;;;5070295;28;20544;-72
2023/12/06 03:32:09;;;;;;;35.30;24.70;;;4.90;99.90;;;;;;5096275;28;20596;-72
2023/12/06 03:34:34;;;;;;;32.83;24.07;;;4.90;99.90;;;;;;5061816;28;20643;-72
2023/12/06 03:37:02;;;;;;;37.43;23.70;;;4.90;99.90;;;;;;5096510;27;20541;-72
2023/12/06 03:39:28;;;;;;;29.77;21.10;;;4.90;99.90;;;;;;5119584;27;20760;-72
2023/12/06 03:41:53;;;;;;;29.20;21.30;;;4.90;99.90;;;;;;5079868;27;20253;-72
2023/12/06 03:44:19;;;;;;;34.50;23.83;;;4.90;99.90;;;;;;5090474;27;20656;-73
2023/12/06 03:46:45;;;;;;;31.50;23.80;;;4.90;99.90;;;;;;5098998;28;20179;-72
2023/12/06 03:49:10;;;;;;;33.30;24.50;;;4.90;99.90;;;;;;5091376;28;20203;-72
2023/12/06 03:51:36;;;;;;;28.80;20.10;;;4.80;99.90;;;;;;5102169;27;20219;-72
2023/12/06 03:54:04;;;;;;;27.27;20.80;;;4.90;99.90;;;;;;5113248;27;20640;-72
2023/12/06 03:56:30;;;;;;;31.38;23.35;;;4.90;99.90;;;;;;5103707;28;20599;-71
2023/12/06 03:58:56;;;;;;;29.80;23.33;;;4.90;99.90;;;;;;5113308;27;20199;-72
2023/12/06 04:01:22;;;;;;;32.47;23.87;;;4.90;99.90;;;;;;5074442;28;20596;-72
2023/12/06 04:03:47;;;;;;;30.03;22.70;;;4.90;99.90;;;;;;5109610;27;20186;-73
2023/12/06 04:06:13;;;;;;;28.90;22.53;;;4.80;99.90;;;;;;5077773;28;20668;-73
2023/12/06 04:08:39;;;;;;;26.73;20.00;;;4.80;99.90;;;;;;5074352;28;20196;-73
2023/12/06 04:11:05;;;;;;;25.90;20.00;;;4.80;99.90;;;;;;5094976;28;20185;-73
2023/12/06 04:13:31;;;;;;;27.50;19.42;;;4.80;99.90;;;;;;5096622;28;20175;-73
2023/12/06 04:15:57;;;;;;;28.23;21.97;;;4.80;99.90;;;;;;5109312;28;20191;-73
2023/12/06 04:18:23;;;;;;;30.80;22.60;;;4.80;99.90;;;;;;5077753;28;20675;-73
2023/12/06 04:20:49;;;;;;;30.97;22.73;;;4.80;99.90;;;;;;5094317;28;20577;-73
2023/12/06 04:23:14;;;;;;;29.50;21.37;;;4.80;99.90;;;;;;5094607;28;20250;-72
2023/12/06 04:25:40;;;;;;;30.00;21.67;;;4.80;99.90;;;;;;5101940;27;20596;-73
2023/12/06 04:28:07;;;;;;;32.40;21.90;;;4.80;99.90;;;;;;5095565;28;20290;-72
2023/12/06 04:30:32;;;;;;;29.85;21.83;;;4.80;99.90;;;;;;5094493;28;20178;-72
2023/12/06 04:32:58;;;;;;;31.73;20.60;;;4.80;99.90;;;;;;5114589;27;20175;-72
2023/12/06 04:35:24;;;;;;;30.97;22.20;;;4.80;99.90;;;;;;5094236;28;20672;-72
2023/12/06 04:37:49;;;;;;;30.20;21.80;;;4.80;99.90;;;;;;5094826;28;20197;-74
2023/12/06 04:40:15;;;;;;;30.03;21.37;;;4.80;99.90;;;;;;5094352;28;20174;-74
2023/12/06 04:42:41;;;;;;;30.33;21.57;;;4.80;99.90;;;;;;5077809;28;20578;-73
2023/12/06 04:45:07;;;;;;;29.23;21.33;;;4.80;99.90;;;;;;5112105;28;20181;-74
2023/12/06 04:47:32;;;;;;;26.63;20.90;;;4.80;99.90;;;;;;5093553;28;20675;-74
2023/12/06 04:49:58;;;;;;;35.20;24.60;;;4.90;99.90;;;;;;5112117;28;20608;-74
2023/12/06 04:52:24;;;;;;;32.87;22.47;;;4.90;99.90;;;;;;5112188;28;20179;-74
2023/12/06 04:54:51;;;;;;;31.70;23.80;;;4.90;99.90;;;;;;5111768;28;20195;-74
2023/12/06 04:57:19;;;;;;;33.30;22.27;;;4.90;99.90;;;;;;5093517;28;20167;-76
2023/12/06 04:59:45;;;;;;;32.22;22.38;;;4.90;99.90;;;;;;5093796;28;20198;-76
2023/12/06 05:02:11;;;;;;;37.83;24.37;;;4.90;99.90;;;;;;5093519;28;20166;-75
2023/12/06 05:04:36;;;;;;;36.27;23.07;;;4.90;99.90;;;;;;5108133;28;20175;-74
2023/12/06 05:07:02;;;;;;;32.50;20.97;;;4.90;99.90;;;;;;5068487;28;20170;-74
2023/12/06 05:09:28;;;;;;;28.63;19.57;;;5.00;99.90;;;;;;5111064;27;20674;-75
2023/12/06 05:11:54;;;;;;;27.67;19.17;;;5.00;99.90;;;;;;5090719;28;20182;-75
2023/12/06 05:14:19;;;;;;;32.80;21.10;;;5.00;99.90;;;;;;5109753;28;20174;-74
2023/12/06 05:16:45;;;;;;;30.73;21.60;;;5.00;99.90;;;;;;5081230;28;20684;-74
2023/12/06 05:19:11;;;;;;;30.60;19.77;;;5.00;99.90;;;;;;5092830;28;20687;-75
2023/12/06 05:21:36;;;;;;;32.80;19.43;;;5.10;99.90;;;;;;5093503;28;20186;-75
2023/12/06 05:24:02;;;;;;;32.13;22.57;;;5.10;99.90;;;;;;5093199;28;20235;-73
2023/12/06 05:26:28;;;;;;;28.40;20.37;;;5.10;99.90;;;;;;5093186;28;20175;-74
2023/12/06 05:28:54;;;;;;;33.00;22.63;;;5.10;99.90;;;;;;5093096;28;20198;-75
2023/12/06 05:31:20;;;;;;;35.65;20.98;;;5.20;99.90;;;;;;5093458;28;20186;-75
2023/12/06 05:33:46;;;;;;;27.75;19.02;;;5.20;99.90;;;;;;5068512;28;20545;-74
2023/12/06 05:36:11;;;;;;;27.40;18.77;;;5.20;99.90;;;;;;5107855;27;20198;-75
2023/12/06 05:38:37;;;;;;;27.43;18.63;;;5.30;99.90;;;;;;5094747;27;20195;-74
2023/12/06 05:41:03;;;;;;;30.13;21.60;;;5.30;99.90;;;;;;5077324;28;20167;-74
2023/12/06 05:43:29;;;;;;;29.33;21.77;;;5.30;99.90;;;;;;5056229;28;20215;-75
2023/12/06 05:45:55;;;;;;;29.45;21.10;;;5.30;99.90;;;;;;5090232;28;20213;-75
2023/12/06 05:48:21;;;;;;;26.10;20.87;;;5.30;99.90;;;;;;5084764;28;20214;-74
2023/12/06 05:50:46;;;;;;;26.20;19.70;;;5.30;99.90;;;;;;5093000;28;20266;-74
2023/12/06 05:53:12;;;;;;;27.13;19.47;;;5.40;99.90;;;;;;5093381;28;20167;-74
2023/12/06 05:55:38;;;;;;;31.13;20.10;;;5.40;99.90;;;;;;5079188;27;20197;-75
2023/12/06 05:58:05;;;;;;;24.67;18.60;;;5.40;99.90;;;;;;5094842;27;20645;-75
2023/12/06 06:00:31;;;;;;;25.05;19.65;;;5.40;99.90;;;;;;5072899;28;20525;-75
2023/12/06 06:02:58;;;;;;;25.03;18.93;;;5.40;99.90;;;;;;5090928;28;20258;-75
2023/12/06 06:05:24;;;;;;;26.77;18.60;;;5.40;99.90;;;;;;5084910;28;20599;-74
2023/12/06 06:07:50;;;;;;;27.05;20.10;;;5.40;99.90;;;;;;5076086;28;20248;-74
2023/12/06 06:10:15;;;;;;;24.90;19.67;;;5.40;99.90;;;;;;5110973;28;20168;-75
2023/12/06 06:12:41;;;;;;;23.37;18.57;;;5.50;99.90;;;;;;5111255;28;20186;-75
2023/12/06 06:15:08;;;;;;;21.80;17.20;;;5.50;99.90;;;;;;5088413;28;20199;-74
2023/12/06 06:17:34;;;;;;;25.75;20.60;;;5.50;99.90;;;;;;5072598;28;20179;-74
2023/12/06 06:20:00;;;;;;;23.88;19.15;;;5.50;99.90;;;;;;5088514;28;20163;-75
2023/12/06 06:22:27;;;;;;;25.45;20.08;;;5.50;99.90;;;;;;5068712;28;20179;-74
2023/12/06 06:24:52;;;;;;;24.33;19.58;;;5.50;99.90;;;;;;5075726;28;20216;-74
2023/12/06 06:27:18;;;;;;;23.50;17.40;;;5.50;99.90;;;;;;5110624;28;20623;-75
2023/12/06 06:29:44;;;;;;;19.57;16.27;;;5.50;99.90;;;;;;5092549;28;20539;-74
2023/12/06 06:32:10;;;;;;;23.07;18.10;;;5.50;99.90;;;;;;5110691;28;20678;-74
2023/12/06 06:34:36;;;;;;;24.42;16.98;;;5.60;99.90;;;;;;5083888;28;20644;-74
2023/12/06 06:37:02;;;;;;;22.37;18.30;;;5.60;99.90;;;;;;5092575;28;20171;-74
2023/12/06 06:39:28;;;;;;;25.92;21.52;;;5.60;99.90;;;;;;5110685;28;20191;-75
2023/12/06 06:41:54;;;;;;;27.60;20.43;;;5.60;99.90;;;;;;5088144;28;20251;-74
2023/12/06 06:44:20;;;;;;;22.77;18.95;;;5.60;99.90;;;;;;5089963;28;20183;-74
2023/12/06 06:46:46;;;;;;;28.90;21.80;;;5.60;99.90;;;;;;5077934;28;20787;-75
2023/12/06 06:49:12;;;;;;;26.90;22.00;;;5.70;99.90;;;;;;5089651;28;20629;-75
2023/12/06 06:51:37;;;;;;;24.80;20.50;;;5.70;99.90;;;;;;5104445;28;20683;-75
2023/12/06 06:54:05;;;;;;;27.83;22.00;;;5.70;99.90;;;;;;5092373;28;20621;-74
2023/12/06 06:56:31;;;;;;;27.65;20.60;;;5.70;99.90;;;;;;5111416;28;20664;-75
2023/12/06 06:58:57;;;;;;;32.43;26.40;;;5.80;99.90;;;;;;5096000;28;20230;-75
2023/12/06 07:01:23;;;;;;;33.28;27.27;;;5.80;99.90;;;;;;5079173;28;20585;-74
2023/12/06 07:03:50;;;;;;;31.60;24.47;;;5.80;99.90;;;;;;5096915;28;20230;-74
2023/12/06 07:06:15;;;;;;;31.23;25.10;;;5.80;99.90;;;;;;5114484;28;20616;-75
2023/12/06 07:08:41;;;;;;;25.10;21.27;;;5.80;99.90;;;;;;5113955;28;20567;-75
2023/12/06 07:11:07;;;;;;;26.50;22.30;;;5.80;99.90;;;;;;5096088;28;20199;-75
2023/12/06 07:13:34;;;;;;;28.45;22.67;;;5.80;99.90;;;;;;5114052;28;20261;-75
2023/12/06 07:16:00;;;;;;;24.95;19.85;;;5.80;99.90;;;;;;5070420;28;20211;-75
2023/12/06 07:18:27;;;;;;;26.13;20.92;;;5.80;99.90;;;;;;5095934;28;20202;-75
2023/12/06 07:20:53;;;;;;;24.15;20.92;;;5.80;99.90;;;;;;5096135;28;20262;-75
2023/12/06 07:23:18;;;;;;;23.80;21.30;;;5.80;99.90;;;;;;5114166;28;20296;-75
2023/12/06 07:25:45;;;;;;;29.47;21.70;;;5.90;99.90;;;;;;5095451;28;20178;-75
2023/12/06 07:28:12;;;;;;;24.30;18.90;;;5.90;99.90;;;;;;5095524;28;20235;-74
2023/12/06 07:30:37;;;;;;;26.02;19.55;;;5.90;99.90;;;;;;5114373;28;20380;-74
2023/12/06 07:33:03;;;;;;;24.07;20.53;;;5.90;99.90;;;;;;5078188;28;20276;-74
2023/12/06 07:35:29;;;;;;;23.03;19.17;;;5.90;99.90;;;;;;5113483;28;20202;-74
2023/12/06 07:37:55;;;;;;;25.53;20.90;;;6.00;99.90;;;;;;5113646;28;20604;-74
2023/12/06 07:40:21;;;;;;;27.83;20.67;;;6.00;99.90;;;;;;5116720;28;20635;-74
2023/12/06 07:42:48;;;;;;;26.73;22.67;;;6.00;99.90;;;;;;5095090;28;20175;-74
2023/12/06 07:45:14;;;;;;;23.13;20.27;;;6.00;99.90;;;;;;5113508;28;20659;-75
2023/12/06 07:47:40;;;;;;;23.60;19.57;;;6.00;99.90;;;;;;5095029;28;20652;-75
2023/12/06 07:50:07;;;;;;;23.65;20.20;;;6.10;99.90;;;;;;5113021;28;20174;-75
2023/12/06 07:52:34;;;;;;;27.30;20.67;;;6.10;99.90;;;;;;5113633;28;20225;-75
2023/12/06 07:55:00;;;;;;;29.75;23.23;;;6.10;99.90;;;;;;5113017;28;20743;-74
2023/12/06 07:57:28;;;;;;;29.85;25.30;;;6.10;99.90;;;;;;5087930;28;20561;-75
2023/12/06 07:59:58;;;;;;;26.92;21.10;;;6.20;99.90;;;;;;5090393;28;20182;-75
2023/12/06 08:02:26;;;;;;;20.02;17.65;;;6.20;99.90;;;;;;5095098;28;20171;-75
2023/12/06 08:04:52;;;;;;;23.53;20.33;;;6.20;99.90;;;;;;5113052;28;20250;-75
2023/12/06 08:07:18;;;;;;;28.40;24.00;;;6.20;99.90;;;;;;5113228;28;20179;-74
2023/12/06 08:09:44;;;;;;;26.37;22.60;;;6.30;99.90;;;;;;5104637;28;20199;-74
2023/12/06 08:12:10;;;;;;;25.92;20.70;;;6.30;99.90;;;;;;5060168;28;20236;-75
2023/12/06 08:14:39;;;;;;;24.03;19.50;;;6.30;99.90;;;;;;5082727;28;20200;-74
2023/12/06 08:17:05;;;;;;;21.08;18.55;;;6.40;99.90;;;;;;5075386;28;20183;-74
2023/12/06 08:19:31;;;;;;;22.67;17.80;;;6.40;99.90;;;;;;5094672;28;20534;-75
2023/12/06 08:21:57;;;;;;;20.15;17.60;;;6.40;99.90;;;;;;5086428;28;20171;-73
2023/12/06 08:24:23;;;;;;;21.10;17.02;;;6.50;99.90;;;;;;5092477;28;20180;-74
2023/12/06 08:26:50;;;;;;;22.60;19.17;;;6.50;99.90;;;;;;5080959;28;20201;-74
2023/12/06 08:29:15;;;;;;;19.58;16.60;;;6.50;99.90;;;;;;5083796;28;20199;-74
2023/12/06 08:31:41;;;;;;;22.20;19.00;;;6.50;99.90;;;;;;5074289;28;20187;-73
2023/12/06 08:34:07;;;;;;;20.07;17.57;;;6.60;99.90;;;;;;5082071;28;20263;-74
2023/12/06 08:36:33;;;;;;;21.13;18.90;;;6.50;99.90;;;;;;5096776;28;20301;-74
2023/12/06 08:38:58;;;;;;;21.47;18.60;;;6.60;99.90;;;;;;5084536;28;20621;-73
2023/12/06 08:41:24;;;;;;;21.50;16.80;;;6.60;99.90;;;;;;5100843;28;20175;-74
2023/12/06 08:43:50;;;;;;;21.47;18.40;;;6.60;99.90;;;;;;5068569;28;20190;-74
2023/12/06 08:46:15;;;;;;;18.57;16.30;;;6.60;99.90;;;;;;5099486;28;20617;-75
2023/12/06 08:48:41;;;;;;;20.43;18.03;;;6.60;99.90;;;;;;5079193;28;20640;-75
2023/12/06 08:51:08;;;;;;;19.67;17.00;;;6.60;99.90;;;;;;5085669;28;20704;-74
2023/12/06 08:53:34;;;;;;;19.90;16.25;;;6.70;99.90;;;;;;5094065;28;20585;-74
2023/12/06 08:56:00;;;;;;;18.98;16.80;;;6.70;99.90;;;;;;5094306;28;20714;-73
2023/12/06 08:58:27;;;;;;;19.30;16.83;;;6.70;99.90;;;;;;5068721;28;20287;-74
2023/12/06 09:00:53;;;;;;;21.90;19.58;;;6.70;99.90;;;;;;5093376;28;20179;-74
2023/12/06 09:03:20;;;;;;;18.35;16.25;;;6.70;99.90;;;;;;5112235;28;20175;-74
2023/12/06 09:05:47;;;;;;;18.67;16.05;;;6.80;99.90;;;;;;5111881;28;20178;-74
2023/12/06 09:08:14;;;;;;;17.38;15.68;;;6.80;99.90;;;;;;5093249;28;20187;-74
2023/12/06 09:10:39;;;;;;;19.05;16.50;;;6.80;99.90;;;;;;5093682;28;20186;-74
2023/12/06 09:13:05;;;;;;;18.40;16.07;;;6.80;99.90;;;;;;5076832;28;20175;-74
2023/12/06 09:15:31;;;;;;;18.37;14.67;;;6.90;99.90;;;;;;5103666;28;20675;-75
2023/12/06 09:17:57;;;;;;;18.80;16.03;;;6.90;99.90;;;;;;5111891;28;20667;-75
2023/12/06 09:20:23;;;;;;;19.83;17.00;;;6.90;99.90;;;;;;5085038;28;20187;-75
2023/12/06 09:22:50;;;;;;;18.92;15.90;;;7.00;99.90;;;;;;5093715;28;20171;-76
2023/12/06 09:25:16;;;;;;;16.00;14.18;;;7.00;99.90;;;;;;5083245;28;20270;-75
2023/12/06 09:27:42;;;;;;;16.73;13.98;;;7.00;99.90;;;;;;5085012;28;20183;-75
2023/12/06 09:30:08;;;;;;;15.33;13.10;;;7.10;99.90;;;;;;5067988;28;20251;-75
2023/12/06 09:32:34;;;;;;;16.40;14.70;;;7.10;99.90;;;;;;5111869;28;20704;-75
2023/12/06 09:35:00;;;;;;;15.80;14.10;;;7.10;99.90;;;;;;5093290;28;20198;-75
2023/12/06 09:37:26;;;;;;;16.00;14.20;;;7.10;99.90;;;;;;5067948;28;20170;-75
2023/12/06 09:39:53;;;;;;;17.20;13.20;;;7.20;99.90;;;;;;5092664;28;20182;-74
2023/12/06 09:42:19;;;;;;;14.90;13.40;;;7.20;99.90;;;;;;5111470;28;20573;-74
2023/12/06 09:44:45;;;;;;;17.05;14.90;;;7.30;99.90;;;;;;5111288;28;20178;-75
2023/12/06 09:47:12;;;;;;;19.30;16.25;;;7.30;99.90;;;;;;5110957;28;20171;-73
2023/12/06 09:49:37;;;;;;;18.13;16.25;;;7.30;99.90;;;;;;5103578;28;20633;-73
2023/12/06 09:52:19;;;;;;;17.27;15.40;;;7.30;99.90;;;;;;5085206;28;20203;-73
2023/12/06 09:54:45;;;;;;;17.08;14.93;;;7.30;99.90;;;;;;5092823;28;20666;-74
2023/12/06 09:57:12;;;;;;;20.20;16.70;;;7.40;99.90;;;;;;5110607;28;20171;-73
2023/12/06 09:59:40;;;;;;;17.48;15.15;;;7.40;99.90;;;;;;5076082;28;20244;-73
2023/12/06 10:02:06;;;;;;;16.85;15.05;;;7.40;99.90;;;;;;5084488;28;20167;-73
2023/12/06 10:04:33;;;;;;;16.80;13.80;;;7.40;99.90;;;;;;5092651;28;20183;-73
2023/12/06 10:07:00;;;;;;;13.90;12.43;;;7.40;99.90;;;;;;5108312;28;20206;-73
2023/12/06 10:09:27;;;;;;;19.92;15.95;;;7.50;99.90;;;;;;5105395;28;20241;-73
2023/12/06 10:12:12;;;;;;;20.50;16.48;;;7.50;99.90;;;;;;5086311;28;20191;-73
2023/12/06 10:14:38;;;;;;;18.52;14.52;;;7.50;99.90;;;;;;5067719;28;20282;-73
2023/12/06 10:17:04;;;;;;;17.57;13.60;;;7.50;99.90;;;;;;5092812;28;20164;-73
2023/12/06 10:19:31;;;;;;;19.35;14.30;;;7.50;99.90;;;;;;5092026;28;20191;-73
2023/12/06 10:21:58;;;;;;;16.13;13.80;;;7.60;99.90;;;;;;5092637;28;20159;-73
2023/12/06 10:24:24;;;;;;;15.75;14.05;;;7.60;99.90;;;;;;5079072;28;20568;-73
2023/12/06 10:27:03;;;;;;;17.67;14.33;;;7.60;99.90;;;;;;5110525;28;20187;-74
2023/12/06 10:29:32;;;;;;;16.55;13.40;;;7.60;99.90;;;;;;5081142;28;20214;-73
2023/12/06 10:31:58;;;;;;;15.05;13.40;;;7.70;99.90;;;;;;5072196;28;20189;-73
2023/12/06 10:34:30;;;;;;;17.15;13.95;;;7.70;99.90;;;;;;5077066;28;20265;-74
2023/12/06 10:36:58;;;;;;;15.23;13.55;;;7.80;99.90;;;;;;5101940;28;20171;-73
2023/12/06 10:39:26;;;;;;;15.82;14.05;;;7.80;99.90;;;;;;5114348;28;20191;-74
2023/12/06 10:41:55;;;;;;;18.38;13.88;;;7.80;99.90;;;;;;5111429;28;20216;-74
2023/12/06 10:44:21;;;;;;;15.85;13.93;;;7.80;99.90;;;;;;5087086;28;20179;-74
2023/12/06 10:46:48;;;;;;;14.00;12.23;;;7.90;99.90;;;;;;5079173;28;20171;-74
2023/12/06 10:49:15;;;;;;;17.98;12.70;;;7.80;99.90;;;;;;5079186;28;20233;-74
2023/12/06 10:51:43;;;;;;;15.48;12.70;;;7.80;99.90;;;;;;5096281;28;20175;-74
2023/12/06 10:54:12;;;;;;;14.80;12.25;;;7.90;99.90;;;;;;5096016;28;20579;-74
2023/12/06 10:56:39;;;;;;;14.30;12.60;;;7.90;99.90;;;;;;5071103;28;20301;-74
2023/12/06 10:59:09;;;;;;;17.05;13.38;;;7.90;99.90;;;;;;5079132;28;20679;-73
2023/12/06 11:01:35;;;;;;;13.25;11.85;;;7.90;99.90;;;;;;5075694;28;20233;-73
2023/12/06 11:04:04;;;;;;;16.90;13.10;;;7.90;99.90;;;;;;5091015;28;20175;-74
2023/12/06 11:07:05;;;;;;;15.75;12.32;;;7.90;99.90;;;;;;5095932;28;20589;-74
2023/12/06 11:09:46;;;;;;;13.25;11.70;;;7.90;99.90;;;;;;5067858;28;20195;-73
2023/12/06 11:12:21;;;;;;;14.90;13.27;;;7.90;99.90;;;;;;5096073;28;20175;-74
2023/12/06 11:15:21;;;;;;;13.13;10.00;;;8.00;99.90;;;;;;5097026;28;20205;-73
2023/12/06 11:18:18;;;;;;;12.82;11.38;;;8.00;99.90;;;;;;5089948;28;20191;-73
2023/12/06 11:20:45;;;;;;;12.52;11.23;;;8.00;99.90;;;;;;5071201;28;20163;-74
2023/12/06 11:23:11;;;;;;;13.75;12.25;;;8.00;99.90;;;;;;5091740;28;20170;-73
2023/12/06 11:25:45;;;;;;;17.58;14.10;;;8.10;99.90;;;;;;5095594;28;20169;-74
2023/12/06 11:28:12;;;;;;;15.75;13.80;;;8.10;99.90;;;;;;5087260;28;20247;-73
2023/12/06 11:30:47;;;;;;;15.82;14.32;;;8.10;99.90;;;;;;5113646;28;20174;-73
2023/12/06 11:33:13;;;;;;;16.75;13.70;;;8.10;99.90;;;;;;5113335;28;20249;-73
2023/12/06 11:35:44;;;;;;;17.35;13.70;;;8.10;99.90;;;;;;5075166;28;20203;-73
2023/12/06 11:38:09;;;;;;;15.75;13.98;;;8.10;99.90;;;;;;5074623;28;20624;-73
2023/12/06 11:40:35;;;;;;;17.93;14.80;;;8.20;99.90;;;;;;5077871;28;20245;-73
2023/12/06 11:43:02;;;;;;;16.33;14.60;;;8.20;99.90;;;;;;5094234;28;20155;-73
2023/12/06 11:45:29;;;;;;;16.50;14.75;;;8.20;99.90;;;;;;5113257;28;20584;-73
2023/12/06 11:48:00;;;;;;;15.77;14.13;;;8.30;99.90;;;;;;5095191;28;20225;-73
2023/12/06 11:50:26;;;;;;;17.40;13.20;;;8.30;99.90;;;;;;5113508;28;20186;-74
2023/12/06 11:52:55;;;;;;;16.97;15.10;;;8.30;99.90;;;;;;5078287;28;20174;-73
2023/12/06 11:55:23;;;;;;;15.05;13.45;;;8.30;99.90;;;;;;5094670;28;20647;-73
2023/12/06 11:58:06;;;;;;;15.73;13.48;;;8.40;99.90;;;;;;5087549;28;20191;-74
2023/12/06 12:00:32;;;;;;;18.65;13.48;;;8.40;99.90;;;;;;5084271;28;20581;-73
2023/12/06 12:03:00;;;;;;;15.88;14.15;;;8.50;99.90;;;;;;5074879;28;20179;-74
2023/12/06 12:05:26;;;;;;;14.85;13.25;;;8.50;99.90;;;;;;5074577;28;20180;-74
2023/12/06 12:07:53;;;;;;;16.83;14.57;;;8.60;99.90;;;;;;5095240;28;20207;-74
2023/12/06 12:10:19;;;;;;;17.70;13.95;;;8.60;99.90;;;;;;5113133;28;20241;-74
2023/12/06 12:12:48;;;;;;;14.73;11.77;;;8.70;99.90;;;;;;5094919;28;20175;-74
2023/12/06 12:15:16;;;;;;;15.95;13.48;;;8.70;99.90;;;;;;5094582;28;20259;-74
2023/12/06 12:17:44;;;;;;;17.50;13.20;;;8.70;99.90;;;;;;5094924;28;20240;-74
2023/12/06 12:20:13;;;;;;;15.88;12.45;;;8.80;99.90;;;;;;5112722;28;20181;-74
2023/12/06 12:22:46;;;;;;;16.38;11.57;;;8.80;99.90;;;;;;5094626;28;20216;-73
2023/12/06 12:25:12;;;;;;;15.02;13.10;;;8.90;99.90;;;;;;5093968;28;20205;-73
2023/12/06 12:27:39;;;;;;;13.90;11.33;;;8.90;99.90;;;;;;5094598;28;20175;-74
2023/12/06 12:30:07;;;;;;;13.40;11.93;;;8.90;99.90;;;;;;5112842;28;20179;-74
2023/12/06 12:32:34;;;;;;;17.73;12.15;;;8.90;99.90;;;;;;5094301;28;20206;-74
2023/12/06 12:35:00;;;;;;;12.75;10.90;;;9.00;99.90;;;;;;5094193;28;20209;-74